Time;durP1;ratioP1;P1;durP2;ratioP2;P2;SDS_P1;SDS_P2;PMS_P1;PMS_P2;Temp;Humidity;BMP_temperature;BMP_pressure;BME280_temperature;BME280_humidity;BME280_pressure;Samples;Min_cycle;Max_cycle;Signal;HPM_P1;HPM_P2
2022/03/30 00:00:56;;;;;;;1.67;1.20;;;23.50;51.30;;;;;;5029012;28;20204;-89
2022/03/30 00:03:22;;;;;;;1.47;1.30;;;23.50;51.30;;;;;;5030912;28;20423;-90
2022/03/30 00:05:48;;;;;;;1.53;1.43;;;23.50;51.30;;;;;;5032301;28;20411;-90
2022/03/30 00:08:14;;;;;;;1.77;1.40;;;23.50;51.30;;;;;;5029006;28;20428;-90
2022/03/30 00:10:44;;;;;;;1.23;1.13;;;23.50;51.80;;;;;;5032716;28;20780;-90
2022/03/30 00:13:10;;;;;;;2.00;1.47;;;23.50;51.30;;;;;;5031904;28;20475;-89
2022/03/30 00:15:39;;;;;;;2.53;1.90;;;23.50;51.30;;;;;;5028205;28;20439;-90
2022/03/30 00:18:10;;;;;;;1.47;1.20;;;23.50;51.30;;;;;;5027224;28;20284;-90
2022/03/30 00:20:36;;;;;;;2.10;1.37;;;23.50;51.30;;;;;;5029125;28;20482;-89
2022/03/30 00:23:03;;;;;;;2.10;1.37;;;23.50;51.30;;;;;;5027966;28;20416;-89
2022/03/30 00:25:28;;;;;;;1.43;1.30;;;23.50;51.30;;;;;;5028038;28;20181;-89
2022/03/30 00:27:54;;;;;;;2.30;1.50;;;23.50;51.30;;;;;;5027803;28;20426;-89
2022/03/30 00:30:24;;;;;;;2.07;1.20;;;23.50;51.30;;;;;;5027698;28;20192;-90
2022/03/30 00:32:50;;;;;;;1.77;1.47;;;23.50;51.20;;;;;;5028545;28;20181;-89
2022/03/30 00:35:16;;;;;;;1.30;1.10;;;23.50;51.20;;;;;;5027480;28;20479;-90
2022/03/30 00:37:44;;;;;;;1.90;1.50;;;23.50;51.30;;;;;;5027668;28;20466;-89
2022/03/30 00:40:13;;;;;;;1.53;1.07;;;23.50;51.30;;;;;;5027788;28;20513;-89
2022/03/30 00:42:39;;;;;;;1.97;1.60;;;23.50;51.20;;;;;;5026942;28;20424;-89
2022/03/30 00:45:13;;;;;;;1.90;1.50;;;23.40;51.20;;;;;;5013146;28;20420;-89
2022/03/30 00:47:39;;;;;;;1.73;1.40;;;23.50;51.20;;;;;;5007645;28;20424;-89
2022/03/30 00:50:08;;;;;;;1.73;1.50;;;23.50;51.30;;;;;;5008003;28;20902;-88
2022/03/30 00:52:37;;;;;;;1.50;1.30;;;23.50;51.30;;;;;;5007839;28;20899;-88
2022/03/30 00:55:08;;;;;;;1.90;1.40;;;23.50;51.30;;;;;;5006598;28;20432;-89
2022/03/30 00:57:36;;;;;;;2.10;1.50;;;23.50;51.20;;;;;;5006793;28;20491;-89
2022/03/30 01:00:08;;;;;;;1.20;1.10;;;23.50;51.30;;;;;;5007334;28;20460;-89
2022/03/30 01:02:39;;;;;;;2.27;1.47;;;23.40;51.20;;;;;;5009033;28;20408;-89
2022/03/30 01:05:06;;;;;;;2.07;1.33;;;23.40;51.20;;;;;;5008939;28;20468;-88
2022/03/30 01:07:32;;;;;;;1.70;1.23;;;23.40;51.20;;;;;;5010461;28;20416;-89
2022/03/30 01:10:02;;;;;;;1.70;1.40;;;23.40;51.20;;;;;;5007089;28;20428;-89
2022/03/30 01:12:34;;;;;;;1.60;1.30;;;23.40;51.20;;;;;;5009753;28;20237;-89
2022/03/30 01:15:00;;;;;;;2.13;1.50;;;23.40;51.20;;;;;;5009624;28;20450;-88
2022/03/30 01:17:27;;;;;;;1.30;1.10;;;23.40;51.20;;;;;;5008445;28;20484;-89
2022/03/30 01:19:52;;;;;;;2.03;1.40;;;23.40;51.20;;;;;;5008420;28;20443;-88
2022/03/30 01:22:18;;;;;;;1.47;1.37;;;23.40;51.20;;;;;;5008416;28;20424;-88
2022/03/30 01:24:44;;;;;;;1.40;1.30;;;23.40;51.20;;;;;;5007664;28;20240;-89
2022/03/30 01:27:13;;;;;;;1.90;1.57;;;23.40;51.20;;;;;;5007246;28;20455;-89
2022/03/30 01:32:29;;;;;;;1.37;1.07;;;23.40;51.20;;;;;;5009412;28;20399;-89
2022/03/30 01:34:59;;;;;;;2.03;1.27;;;23.40;51.20;;;;;;5007630;28;20420;-89
2022/03/30 01:37:28;;;;;;;1.33;1.17;;;23.40;51.20;;;;;;5007960;28;20507;-89
2022/03/30 01:39:57;;;;;;;2.13;1.50;;;23.40;51.20;;;;;;5007071;28;20412;-88
2022/03/30 01:42:24;;;;;;;1.70;1.13;;;23.40;51.20;;;;;;5006575;28;20443;-87
2022/03/30 01:44:55;;;;;;;1.27;1.03;;;23.40;51.20;;;;;;5006462;28;20422;-88
2022/03/30 01:47:21;;;;;;;1.67;1.40;;;23.30;51.10;;;;;;5006031;28;20412;-89
2022/03/30 01:49:48;;;;;;;1.70;1.30;;;23.40;51.20;;;;;;5007885;28;20408;-89
2022/03/30 01:52:21;;;;;;;2.27;1.30;;;23.40;51.20;;;;;;5005832;28;20419;-89
2022/03/30 01:54:48;;;;;;;1.60;1.20;;;23.30;51.20;;;;;;5006292;28;20416;-89
2022/03/30 01:57:16;;;;;;;1.50;1.40;;;23.40;51.20;;;;;;5009158;28;20459;-88
2022/03/30 01:59:44;;;;;;;1.50;1.30;;;23.40;51.20;;;;;;5007406;28;20413;-88
2022/03/30 02:02:11;;;;;;;1.30;1.20;;;23.30;51.20;;;;;;4986970;28;20477;-90
2022/03/30 02:04:41;;;;;;;1.57;1.27;;;23.30;51.20;;;;;;4989837;28;20417;-90
2022/03/30 02:07:10;;;;;;;1.47;1.20;;;23.30;51.20;;;;;;4987753;28;20417;-90
2022/03/30 02:09:37;;;;;;;1.10;0.90;;;23.30;51.20;;;;;;4987451;28;20423;-89
2022/03/30 02:12:07;;;;;;;1.60;1.30;;;23.30;51.20;;;;;;4989495;28;20421;-89
2022/03/30 02:14:36;;;;;;;1.87;1.10;;;23.30;51.30;;;;;;4987213;28;20452;-90
2022/03/30 02:17:02;;;;;;;1.73;1.60;;;23.30;51.20;;;;;;4985971;28;20496;-89
2022/03/30 02:19:29;;;;;;;1.83;1.40;;;23.30;51.30;;;;;;4986083;28;20515;-90
2022/03/30 02:21:55;;;;;;;1.30;1.10;;;23.30;51.20;;;;;;4992741;28;20413;-90
2022/03/30 02:24:21;;;;;;;1.77;1.00;;;23.30;51.20;;;;;;4990949;28;20480;-90
2022/03/30 02:26:48;;;;;;;1.57;1.20;;;23.30;51.20;;;;;;4990493;28;20429;-89
2022/03/30 02:29:17;;;;;;;1.63;1.20;;;23.30;51.20;;;;;;4989376;28;20421;-89
2022/03/30 02:31:43;;;;;;;1.73;1.20;;;23.30;51.20;;;;;;4988631;28;20433;-89
2022/03/30 02:34:13;;;;;;;1.30;1.20;;;23.30;51.20;;;;;;4987514;28;20413;-89
2022/03/30 02:36:40;;;;;;;1.30;1.10;;;23.30;51.20;;;;;;4985946;28;20463;-89
2022/03/30 02:39:14;;;;;;;1.40;1.20;;;23.30;51.20;;;;;;4985543;28;20425;-89
2022/03/30 02:41:58;;;;;;;1.43;1.20;;;23.30;51.20;;;;;;4915285;28;20412;-89
2022/03/30 02:44:26;;;;;;;1.93;1.07;;;23.30;51.20;;;;;;4990043;28;20436;-89
2022/03/30 02:47:00;;;;;;;1.40;1.17;;;23.30;51.20;;;;;;4989461;28;20901;-89
2022/03/30 02:49:29;;;;;;;1.30;1.20;;;23.30;51.20;;;;;;4990301;28;20484;-89
2022/03/30 02:51:55;;;;;;;1.13;0.97;;;23.30;51.20;;;;;;4989572;28;20424;-89
2022/03/30 02:54:21;;;;;;;1.40;1.20;;;23.30;51.20;;;;;;4988053;28;20425;-90
2022/03/30 02:56:47;;;;;;;1.27;1.17;;;23.30;51.20;;;;;;4989588;28;20205;-90
2022/03/30 03:02:35;;;;;;;1.23;0.97;;;23.30;51.20;;;;;;4987099;28;20404;-91
2022/03/30 03:05:03;;;;;;;1.60;1.33;;;23.30;51.20;;;;;;4985967;28;20501;-89
2022/03/30 03:07:28;;;;;;;1.23;1.00;;;23.30;51.30;;;;;;4987614;28;20896;-89
2022/03/30 03:09:56;;;;;;;1.43;1.20;;;23.30;51.30;;;;;;4985240;28;20432;-90
2022/03/30 03:12:21;;;;;;;1.60;1.20;;;23.30;51.30;;;;;;4985469;28;20182;-89
2022/03/30 03:14:47;;;;;;;1.73;1.30;;;23.30;51.20;;;;;;4984654;28;20870;-89
2022/03/30 03:17:13;;;;;;;1.57;1.17;;;23.30;51.20;;;;;;4988386;28;20224;-90
2022/03/30 03:19:39;;;;;;;2.17;1.10;;;23.30;51.20;;;;;;4988938;28;20174;-89
2022/03/30 03:22:05;;;;;;;1.10;0.90;;;23.30;51.20;;;;;;4989115;28;20243;-89
2022/03/30 03:24:31;;;;;;;1.37;1.03;;;23.30;51.20;;;;;;4988987;28;20173;-89
2022/03/30 03:26:57;;;;;;;1.50;1.20;;;23.30;51.20;;;;;;4989198;28;20448;-89
2022/03/30 03:29:23;;;;;;;1.27;1.03;;;23.30;51.20;;;;;;4989739;28;20420;-89
2022/03/30 03:31:49;;;;;;;1.67;1.23;;;23.30;51.20;;;;;;4988874;28;20421;-89
2022/03/30 03:34:15;;;;;;;1.30;1.20;;;23.30;51.20;;;;;;4989217;28;20440;-89
2022/03/30 03:36:41;;;;;;;1.60;1.20;;;23.30;51.20;;;;;;4989969;28;20291;-89
2022/03/30 03:39:07;;;;;;;1.33;1.10;;;23.30;51.20;;;;;;4988869;28;20413;-89
2022/03/30 03:41:34;;;;;;;1.47;1.13;;;23.30;51.20;;;;;;4990275;28;20174;-89
2022/03/30 03:44:00;;;;;;;1.37;1.13;;;23.30;51.20;;;;;;4988663;28;20185;-90
2022/03/30 03:46:26;;;;;;;1.60;1.30;;;23.30;51.20;;;;;;4989901;28;20425;-88
2022/03/30 03:48:51;;;;;;;1.23;1.07;;;23.30;51.20;;;;;;4989287;28;20249;-90
2022/03/30 03:51:17;;;;;;;1.20;0.90;;;23.30;51.20;;;;;;4990243;28;20182;-90
2022/03/30 03:53:43;;;;;;;1.50;1.20;;;23.30;51.20;;;;;;4990421;28;20448;-90
2022/03/30 03:59:31;;;;;;;1.37;1.13;;;23.30;51.20;;;;;;5009553;28;20676;-90
2022/03/30 04:01:56;;;;;;;2.10;1.33;;;23.30;51.20;;;;;;5010153;28;20416;-90
2022/03/30 04:04:22;;;;;;;1.63;1.10;;;23.30;51.30;;;;;;5008447;28;20185;-90
2022/03/30 04:06:48;;;;;;;1.10;0.80;;;23.30;51.30;;;;;;5008992;28;20196;-90
2022/03/30 04:09:14;;;;;;;1.33;1.00;;;23.30;51.30;;;;;;5008410;28;20177;-90
2022/03/30 04:11:39;;;;;;;1.30;1.00;;;23.20;51.20;;;;;;5007699;28;20271;-90
2022/03/30 04:14:05;;;;;;;1.17;1.00;;;23.30;51.80;;;;;;5008770;28;20196;-90
2022/03/30 04:16:31;;;;;;;1.83;0.93;;;23.20;51.20;;;;;;5009064;28;20255;-90
2022/03/30 04:18:57;;;;;;;1.03;0.90;;;23.20;51.20;;;;;;5008503;28;20173;-90
2022/03/30 04:28:11;;;;;;;1.20;1.00;;;23.20;51.20;;;;;;5007092;28;20404;-90
2022/03/30 04:30:37;;;;;;;1.33;1.07;;;23.20;51.20;;;;;;5007400;28;20442;-90
2022/03/30 04:33:03;;;;;;;1.30;1.00;;;23.20;51.80;;;;;;5007006;28;20456;-88
2022/03/30 04:35:29;;;;;;;1.20;1.10;;;23.20;51.30;;;;;;5007424;28;20184;-89
2022/03/30 04:37:57;;;;;;;1.13;0.80;;;23.20;51.20;;;;;;5011068;28;20459;-89
2022/03/30 04:40:26;;;;;;;1.77;1.17;;;23.20;51.20;;;;;;5007900;28;20417;-88
2022/03/30 04:42:52;;;;;;;1.50;1.10;;;23.20;51.20;;;;;;5007740;28;20478;-89
2022/03/30 04:45:19;;;;;;;1.20;0.90;;;23.20;51.20;;;;;;5007646;28;20412;-89
2022/03/30 04:47:44;;;;;;;1.50;1.10;;;23.20;51.20;;;;;;5007653;28;20240;-89
2022/03/30 04:50:10;;;;;;;1.67;1.20;;;23.20;51.20;;;;;;5007506;28;20451;-89
2022/03/30 04:52:37;;;;;;;1.20;1.00;;;23.20;51.20;;;;;;5008351;28;20180;-89
2022/03/30 04:55:05;;;;;;;1.83;1.10;;;23.20;51.20;;;;;;5006769;28;20200;-88
2022/03/30 04:57:30;;;;;;;1.30;1.10;;;23.20;51.20;;;;;;5008768;28;20546;-89
2022/03/30 04:59:56;;;;;;;1.40;1.10;;;23.20;51.20;;;;;;5007249;28;20409;-89
2022/03/30 05:02:22;;;;;;;1.10;1.00;;;23.20;51.10;;;;;;5006649;28;20451;-90
2022/03/30 05:04:48;;;;;;;1.17;0.90;;;23.20;51.20;;;;;;5007381;28;20181;-90
2022/03/30 05:07:14;;;;;;;1.60;1.30;;;23.30;51.20;;;;;;5007406;28;20207;-90
2022/03/30 05:09:40;;;;;;;1.27;1.00;;;23.20;51.10;;;;;;5008351;28;20416;-90
2022/03/30 05:12:07;;;;;;;1.20;1.00;;;23.30;51.20;;;;;;5007550;28;20201;-89
2022/03/30 05:14:35;;;;;;;1.07;0.93;;;23.30;51.20;;;;;;5007355;28;20452;-89
2022/03/30 05:17:01;;;;;;;1.23;1.00;;;23.30;51.20;;;;;;5009447;28;20452;-89
2022/03/30 05:19:27;;;;;;;1.20;1.00;;;23.30;51.30;;;;;;5008362;28;20424;-89
2022/03/30 05:21:53;;;;;;;1.17;1.00;;;23.30;51.30;;;;;;5009332;28;20764;-89
2022/03/30 05:24:19;;;;;;;1.73;1.30;;;23.30;51.30;;;;;;5024452;28;20448;-89
2022/03/30 05:26:45;;;;;;;1.00;0.80;;;23.30;51.30;;;;;;5023993;28;20181;-90
2022/03/30 05:29:12;;;;;;;1.07;0.80;;;23.30;51.30;;;;;;5024491;28;20236;-89
2022/03/30 05:31:37;;;;;;;1.37;1.17;;;23.30;51.30;;;;;;5008131;28;20431;-88
2022/03/30 05:34:04;;;;;;;1.30;0.80;;;23.30;51.30;;;;;;5008535;28;20886;-88
2022/03/30 05:36:33;;;;;;;1.40;1.10;;;23.30;51.30;;;;;;5023417;28;20200;-88
2022/03/30 05:38:58;;;;;;;1.20;0.90;;;23.30;51.20;;;;;;5007074;28;20431;-88
2022/03/30 05:41:24;;;;;;;1.10;0.90;;;23.30;51.20;;;;;;5024290;28;20421;-89
2022/03/30 05:43:50;;;;;;;1.20;0.80;;;23.30;51.20;;;;;;5007039;28;20536;-89
2022/03/30 05:46:19;;;;;;;1.20;0.97;;;23.30;51.20;;;;;;5008441;28;20169;-89
2022/03/30 05:48:45;;;;;;;1.47;1.20;;;23.30;51.20;;;;;;5022438;28;20176;-89
2022/03/30 05:51:13;;;;;;;2.50;1.90;;;23.30;51.20;;;;;;5007412;28;20413;-88
2022/03/30 05:53:39;;;;;;;2.10;1.83;;;23.30;51.20;;;;;;5022665;28;20161;-88
2022/03/30 05:56:07;;;;;;;2.50;2.10;;;23.30;51.20;;;;;;5022895;28;20424;-89
2022/03/30 05:58:33;;;;;;;2.80;1.60;;;23.30;51.20;;;;;;5007282;28;20502;-89
2022/03/30 06:00:59;;;;;;;1.67;1.53;;;23.30;51.20;;;;;;5007636;28;20886;-88
2022/03/30 06:03:25;;;;;;;2.10;1.80;;;23.30;51.20;;;;;;5007495;28;20219;-89
2022/03/30 06:05:51;;;;;;;3.20;2.10;;;23.30;51.20;;;;;;5006306;28;20204;-89
2022/03/30 06:08:17;;;;;;;4.13;2.20;;;23.30;51.20;;;;;;5022199;28;20535;-88
2022/03/30 06:10:43;;;;;;;2.17;1.90;;;23.30;51.20;;;;;;5006203;28;20273;-89
2022/03/30 06:13:09;;;;;;;1.87;1.60;;;23.30;51.20;;;;;;5021960;28;20424;-88
2022/03/30 06:15:37;;;;;;;2.20;1.90;;;23.30;51.30;;;;;;5005275;28;20455;-89
2022/03/30 06:18:10;;;;;;;2.73;2.27;;;23.30;51.20;;;;;;5005494;28;20455;-90
2022/03/30 06:20:38;;;;;;;2.53;2.20;;;23.30;51.30;;;;;;5003180;28;20420;-89
2022/03/30 06:23:05;;;;;;;2.10;1.90;;;23.30;51.20;;;;;;5006171;28;20412;-89
2022/03/30 06:25:42;;;;;;;1.67;1.50;;;23.30;51.20;;;;;;5006968;28;20411;-89
2022/03/30 06:28:08;;;;;;;2.07;1.73;;;23.30;51.20;;;;;;5005646;28;20447;-89
2022/03/30 06:30:34;;;;;;;2.00;1.80;;;23.30;51.30;;;;;;5006148;28;20416;-89
2022/03/30 06:33:01;;;;;;;2.23;2.00;;;23.30;51.20;;;;;;5006591;28;20619;-89
2022/03/30 06:35:26;;;;;;;2.33;1.97;;;23.30;51.30;;;;;;5021454;28;20420;-89
2022/03/30 06:37:52;;;;;;;2.67;1.50;;;23.30;51.30;;;;;;5021771;28;20496;-88
2022/03/30 06:40:18;;;;;;;2.03;1.83;;;23.30;51.20;;;;;;5006352;28;20268;-89
2022/03/30 06:42:44;;;;;;;2.40;1.80;;;23.30;51.30;;;;;;5021981;28;20813;-88
2022/03/30 06:45:12;;;;;;;2.60;2.10;;;23.30;51.20;;;;;;5005735;28;20424;-88
2022/03/30 06:47:38;;;;;;;2.00;1.80;;;23.30;51.20;;;;;;5005594;28;20177;-88
2022/03/30 06:50:05;;;;;;;3.00;2.00;;;23.30;51.30;;;;;;5005631;28;20407;-89
2022/03/30 06:52:35;;;;;;;2.90;2.00;;;23.30;51.30;;;;;;5008754;28;20416;-88
2022/03/30 06:55:02;;;;;;;3.07;1.90;;;23.30;51.20;;;;;;5010909;28;20805;-88
2022/03/30 06:57:28;;;;;;;2.13;1.90;;;23.30;51.20;;;;;;5009320;28;20460;-87
2022/03/30 06:59:54;;;;;;;2.50;1.97;;;23.30;51.20;;;;;;5025963;28;20408;-88
2022/03/30 07:03:04;;;;;;;2.50;2.20;;;23.30;51.30;;;;;;5010904;28;20268;-87
2022/03/30 07:05:31;;;;;;;1.90;1.70;;;23.30;51.30;;;;;;5009614;28;20420;-89
2022/03/30 07:10:41;;;;;;;2.00;1.80;;;23.30;51.30;;;;;;5010366;28;20487;-88
2022/03/30 07:13:07;;;;;;;2.43;2.23;;;23.30;51.30;;;;;;5011559;28;20408;-88
2022/03/30 07:15:33;;;;;;;2.20;1.83;;;23.30;51.30;;;;;;5008434;28;20228;-88
2022/03/30 07:18:00;;;;;;;2.70;1.90;;;23.30;51.30;;;;;;5025229;28;20761;-88
2022/03/30 07:20:28;;;;;;;2.40;2.20;;;23.30;51.30;;;;;;5009466;28;20223;-89
2022/03/30 07:22:55;;;;;;;2.40;1.97;;;23.30;51.30;;;;;;5008966;28;20427;-89
2022/03/30 07:25:22;;;;;;;2.70;2.40;;;23.30;51.30;;;;;;5008763;28;20475;-88
2022/03/30 07:27:53;;;;;;;2.20;1.77;;;23.30;51.30;;;;;;5009870;28;20422;-89
2022/03/30 07:30:20;;;;;;;2.60;1.73;;;23.30;51.30;;;;;;5009182;28;20419;-89
2022/03/30 07:32:51;;;;;;;2.27;2.07;;;23.30;51.30;;;;;;5008571;28;20451;-89
2022/03/30 07:35:19;;;;;;;3.20;1.90;;;23.30;51.30;;;;;;5009336;28;20558;-89
2022/03/30 07:37:45;;;;;;;2.57;2.00;;;23.30;51.30;;;;;;5009057;28;20470;-88
2022/03/30 07:40:24;;;;;;;2.27;2.07;;;23.20;51.20;;;;;;5011614;28;20506;-89
2022/03/30 07:42:51;;;;;;;2.63;1.70;;;23.30;51.30;;;;;;5010661;28;20424;-88
2022/03/30 07:45:18;;;;;;;2.93;2.37;;;23.30;51.30;;;;;;5010484;28;20447;-88
2022/03/30 07:47:44;;;;;;;2.23;2.00;;;23.30;51.30;;;;;;5009306;28;20423;-88
2022/03/30 07:50:11;;;;;;;2.43;1.90;;;23.30;51.30;;;;;;5009347;28;20436;-88
2022/03/30 07:52:38;;;;;;;1.73;1.63;;;23.30;51.30;;;;;;5009676;28;20185;-87
2022/03/30 07:55:06;;;;;;;2.47;2.00;;;23.30;51.30;;;;;;5009956;28;20465;-89
2022/03/30 07:57:31;;;;;;;2.57;1.80;;;23.30;51.30;;;;;;5010237;28;20475;-90
2022/03/30 08:00:02;;;;;;;2.00;1.80;;;23.30;51.30;;;;;;5009383;28;20432;-89
2022/03/30 08:02:32;;;;;;;2.97;2.30;;;23.30;51.30;;;;;;5009499;28;20205;-87
2022/03/30 08:04:58;;;;;;;2.87;1.97;;;23.30;51.30;;;;;;5009992;28;20448;-88
2022/03/30 08:07:26;;;;;;;2.40;2.17;;;23.30;51.30;;;;;;5011490;28;20965;-87
2022/03/30 08:10:05;;;;;;;2.47;2.20;;;23.30;51.30;;;;;;5014612;28;20176;-86
2022/03/30 08:12:31;;;;;;;2.27;1.90;;;23.30;51.30;;;;;;5014806;28;20436;-89
2022/03/30 08:14:57;;;;;;;2.73;2.07;;;23.30;51.30;;;;;;5018747;28;20448;-87
2022/03/30 08:17:24;;;;;;;2.63;2.03;;;23.30;51.30;;;;;;5009223;28;20208;-89
2022/03/30 08:19:50;;;;;;;2.10;1.90;;;23.30;51.30;;;;;;5024770;28;20420;-89
2022/03/30 08:25:38;;;;;;;2.27;2.00;;;23.30;51.30;;;;;;5014176;28;20380;-89
2022/03/30 08:28:05;;;;;;;2.73;2.23;;;23.30;51.30;;;;;;5030910;28;20772;-90
2022/03/30 08:30:31;;;;;;;2.20;1.80;;;23.30;51.30;;;;;;5031788;28;20191;-88
2022/03/30 08:32:58;;;;;;;3.23;2.13;;;23.30;51.30;;;;;;5030053;28;21012;-88
2022/03/30 08:35:25;;;;;;;3.13;2.37;;;23.30;51.30;;;;;;5028546;28;20427;-88
2022/03/30 08:37:51;;;;;;;1.80;1.60;;;23.30;51.30;;;;;;5028187;28;20992;-87
2022/03/30 08:40:17;;;;;;;2.13;1.93;;;23.30;51.30;;;;;;5028594;28;20408;-88
2022/03/30 08:42:44;;;;;;;2.87;1.93;;;23.30;51.30;;;;;;5016933;28;20168;-87
2022/03/30 08:45:13;;;;;;;2.33;1.97;;;23.30;51.30;;;;;;5007886;28;20248;-88
2022/03/30 08:47:42;;;;;;;2.40;1.77;;;23.30;51.30;;;;;;5005599;28;20459;-88
2022/03/30 08:50:17;;;;;;;2.30;1.90;;;23.30;51.30;;;;;;5013251;28;20535;-88
2022/03/30 08:52:45;;;;;;;2.20;1.80;;;23.30;51.30;;;;;;5010700;28;20446;-89
2022/03/30 08:55:10;;;;;;;2.33;1.83;;;23.30;51.30;;;;;;5013612;28;20420;-89
2022/03/30 08:57:37;;;;;;;1.93;1.73;;;23.30;51.30;;;;;;5013793;28;20555;-89
2022/03/30 09:00:03;;;;;;;3.97;2.10;;;23.30;51.30;;;;;;5012672;28;20424;-88
2022/03/30 09:02:40;;;;;;;2.60;2.27;;;23.30;51.30;;;;;;5013533;28;20422;-90
2022/03/30 09:05:24;;;;;;;3.10;2.00;;;23.30;51.30;;;;;;5011947;28;20176;-88
2022/03/30 09:07:52;;;;;;;5.77;2.20;;;23.30;51.30;;;;;;5015945;28;20752;-85
2022/03/30 09:10:21;;;;;;;2.90;2.33;;;23.30;51.90;;;;;;5006913;28;20452;-85
2022/03/30 09:12:49;;;;;;;2.83;2.40;;;23.30;51.30;;;;;;5013123;28;20416;-85
2022/03/30 09:15:17;;;;;;;2.17;1.63;;;23.30;51.30;;;;;;5021659;28;20454;-87
2022/03/30 09:17:43;;;;;;;3.00;1.97;;;23.30;51.30;;;;;;5020695;28;20461;-85
2022/03/30 09:20:27;;;;;;;3.80;2.53;;;23.30;51.30;;;;;;5027925;28;20427;-86
2022/03/30 09:22:56;;;;;;;3.53;2.20;;;23.40;51.30;;;;;;5012928;28;20416;-88
2022/03/30 09:25:33;;;;;;;3.43;2.53;;;23.30;51.30;;;;;;5013268;28;20416;-90
2022/03/30 09:27:59;;;;;;;2.10;1.90;;;23.30;51.30;;;;;;5016916;28;20504;-90
2022/03/30 09:30:33;;;;;;;1.83;1.63;;;23.30;51.30;;;;;;5016871;28;20440;-87
2022/03/30 09:32:59;;;;;;;2.70;2.17;;;23.30;51.30;;;;;;5018211;28;20427;-87
2022/03/30 09:35:37;;;;;;;3.27;2.47;;;23.30;51.30;;;;;;5009947;28;20432;-88
2022/03/30 09:38:14;;;;;;;2.43;1.90;;;23.30;51.30;;;;;;5003305;28;20459;-88
2022/03/30 09:40:48;;;;;;;3.60;2.13;;;23.30;51.30;;;;;;5007342;28;20515;-89
2022/03/30 09:43:15;;;;;;;2.50;2.30;;;23.30;51.30;;;;;;5014859;28;20442;-88
2022/03/30 09:45:42;;;;;;;3.00;2.37;;;23.40;51.40;;;;;;5022478;28;20451;-89
2022/03/30 09:48:15;;;;;;;2.60;2.10;;;23.30;51.30;;;;;;5021698;28;20431;-88
2022/03/30 09:50:43;;;;;;;2.73;2.50;;;23.40;51.30;;;;;;5022606;28;20436;-89
2022/03/30 09:53:12;;;;;;;3.07;2.00;;;23.40;51.40;;;;;;5021083;28;20427;-89
2022/03/30 09:56:00;;;;;;;2.93;2.10;;;23.40;51.40;;;;;;5023997;28;20428;-88
2022/03/30 09:58:34;;;;;;;2.33;1.87;;;23.40;51.40;;;;;;5017454;28;20980;-89
2022/03/30 10:01:23;;;;;;;3.13;2.00;;;23.40;51.40;;;;;;5023048;28;20484;-89
2022/03/30 10:03:55;;;;;;;2.80;1.87;;;23.40;51.40;;;;;;4999842;28;20437;-90
2022/03/30 10:06:28;;;;;;;2.17;1.73;;;23.30;51.40;;;;;;5012087;28;20434;-90
2022/03/30 10:08:58;;;;;;;3.03;2.10;;;23.40;51.40;;;;;;5013296;28;20415;-91
2022/03/30 10:11:29;;;;;;;2.87;2.17;;;23.40;51.40;;;;;;5018202;28;20412;-88
2022/03/30 10:13:57;;;;;;;3.60;2.20;;;23.40;51.40;;;;;;5004312;28;20448;-89
2022/03/30 10:16:28;;;;;;;4.77;2.80;;;23.40;51.40;;;;;;5014328;28;20415;-91
2022/03/30 10:19:04;;;;;;;4.80;2.77;;;23.40;51.40;;;;;;5013524;28;20446;-89
2022/03/30 10:21:59;;;;;;;5.87;3.70;;;23.40;51.40;;;;;;5021277;28;20468;-89
2022/03/30 10:25:02;;;;;;;3.03;2.73;;;23.40;51.40;;;;;;5014710;28;20951;-89
2022/03/30 10:28:16;;;;;;;3.97;2.80;;;23.40;51.40;;;;;;5020985;28;20462;-90
2022/03/30 10:30:43;;;;;;;4.47;3.10;;;23.40;51.40;;;;;;4964265;29;20462;-87
2022/03/30 10:33:29;;;;;;;3.40;2.83;;;23.40;51.40;;;;;;5015856;28;20437;-88
2022/03/30 10:35:56;;;;;;;4.40;2.87;;;23.40;51.40;;;;;;5032750;28;20437;-89
2022/03/30 10:38:23;;;;;;;3.90;3.43;;;23.40;51.40;;;;;;5026987;28;20568;-89
2022/03/30 10:41:06;;;;;;;3.33;2.60;;;23.40;51.40;;;;;;5027488;28;20486;-90
2022/03/30 10:43:32;;;;;;;3.60;2.73;;;23.40;51.40;;;;;;5025827;28;20788;-89
2022/03/30 10:46:01;;;;;;;4.00;3.00;;;23.40;51.40;;;;;;5014304;28;20507;-89
2022/03/30 10:48:30;;;;;;;4.43;2.60;;;23.40;51.40;;;;;;5020035;28;20736;-88
2022/03/30 10:51:18;;;;;;;4.57;3.70;;;23.40;51.30;;;;;;5028150;28;20418;-88
2022/03/30 10:53:52;;;;;;;3.27;2.47;;;23.40;51.30;;;;;;5027815;28;20494;-89
2022/03/30 10:56:18;;;;;;;4.73;3.10;;;23.40;51.40;;;;;;5024916;28;20469;-89
2022/03/30 10:58:52;;;;;;;4.50;3.40;;;23.40;51.40;;;;;;5026160;28;20419;-89
2022/03/30 11:01:22;;;;;;;3.30;2.60;;;23.40;51.40;;;;;;5024288;28;20247;-89
2022/03/30 11:04:13;;;;;;;3.40;3.00;;;23.40;51.40;;;;;;4997002;28;20429;-89
2022/03/30 11:07:13;;;;;;;3.47;2.67;;;23.40;51.40;;;;;;4990487;28;20492;-88
2022/03/30 11:09:40;;;;;;;4.23;2.70;;;23.40;51.40;;;;;;4990120;28;20417;-89
2022/03/30 11:12:15;;;;;;;4.40;3.17;;;23.40;51.40;;;;;;4991090;28;20417;-88
2022/03/30 11:18:32;;;;;;;3.07;2.50;;;23.40;51.40;;;;;;4931835;29;20471;-89
2022/03/30 11:21:19;;;;;;;2.87;2.43;;;23.40;51.40;;;;;;4927017;29;20444;-88
2022/03/30 11:24:30;;;;;;;3.37;2.77;;;23.40;51.50;;;;;;4914192;29;20431;-89
2022/03/30 11:27:02;;;;;;;4.03;2.63;;;23.40;51.50;;;;;;4855522;29;20426;-89
2022/03/30 11:29:48;;;;;;;3.10;2.60;;;23.40;51.50;;;;;;4863119;29;20458;-90
2022/03/30 11:32:53;;;;;;;3.57;2.90;;;23.40;51.50;;;;;;4856516;29;20446;-88
2022/03/30 11:35:28;;;;;;;4.93;3.13;;;23.40;51.50;;;;;;4871438;29;20555;-89
2022/03/30 11:38:05;;;;;;;3.73;3.43;;;23.40;51.50;;;;;;4874004;29;20458;-90
2022/03/30 11:40:36;;;;;;;5.37;3.00;;;23.40;51.50;;;;;;4872568;29;20465;-89
2022/03/30 11:43:02;;;;;;;3.50;2.77;;;23.30;51.40;;;;;;4877721;29;20450;-88
2022/03/30 11:45:29;;;;;;;5.50;2.77;;;23.40;51.50;;;;;;4868989;29;20439;-88
2022/03/30 11:48:06;;;;;;;4.10;3.10;;;23.40;51.50;;;;;;4859712;29;20430;-89
2022/03/30 11:50:38;;;;;;;3.70;3.00;;;23.40;51.50;;;;;;4860931;29;20477;-89
2022/03/30 11:53:09;;;;;;;3.97;2.70;;;23.40;51.50;;;;;;4892824;29;20944;-90
2022/03/30 11:55:51;;;;;;;3.90;2.73;;;23.40;51.50;;;;;;4951628;29;20428;-89
2022/03/30 11:58:49;;;;;;;2.67;2.30;;;23.40;51.40;;;;;;4935670;29;20476;-89
2022/03/30 12:01:21;;;;;;;3.47;2.40;;;23.40;51.50;;;;;;4932286;29;20500;-89
2022/03/30 12:03:51;;;;;;;3.27;2.73;;;23.40;51.50;;;;;;4999533;28;20404;-88
2022/03/30 12:06:21;;;;;;;3.23;2.70;;;23.40;51.50;;;;;;5015092;28;20420;-87
2022/03/30 12:08:49;;;;;;;4.17;2.83;;;23.40;51.50;;;;;;5013838;28;20502;-87
2022/03/30 12:11:20;;;;;;;2.73;2.50;;;23.40;51.50;;;;;;5015558;28;20419;-89
2022/03/30 12:13:53;;;;;;;4.03;3.50;;;23.40;51.50;;;;;;5013726;28;20510;-88
2022/03/30 12:16:19;;;;;;;4.07;2.50;;;23.40;51.50;;;;;;5014513;28;20528;-88
2022/03/30 12:18:48;;;;;;;3.87;2.17;;;23.40;51.50;;;;;;5015292;28;20454;-88
2022/03/30 12:21:17;;;;;;;4.37;2.77;;;23.40;51.40;;;;;;5012151;28;20421;-88
2022/03/30 12:23:54;;;;;;;3.63;2.70;;;23.40;51.40;;;;;;5012420;28;20432;-88
2022/03/30 12:26:20;;;;;;;3.23;2.20;;;23.40;51.40;;;;;;5011434;28;20450;-87
2022/03/30 12:28:49;;;;;;;3.30;2.60;;;23.40;51.40;;;;;;5013147;28;20412;-88
2022/03/30 12:31:15;;;;;;;3.43;2.70;;;23.40;51.40;;;;;;5012307;28;20781;-88
2022/03/30 12:33:48;;;;;;;3.70;3.13;;;23.40;51.40;;;;;;5012937;28;20423;-89
2022/03/30 12:36:17;;;;;;;2.87;2.57;;;23.40;51.40;;;;;;5012523;28;20424;-88
2022/03/30 12:38:51;;;;;;;3.40;2.77;;;23.40;51.40;;;;;;5014881;28;20436;-87
2022/03/30 12:41:25;;;;;;;3.93;2.53;;;23.30;51.40;;;;;;5020182;28;20487;-87
2022/03/30 12:44:00;;;;;;;3.03;2.73;;;23.40;51.40;;;;;;5007874;28;20972;-86
2022/03/30 12:46:35;;;;;;;3.83;2.70;;;23.40;51.50;;;;;;5010971;28;20495;-88
2022/03/30 12:49:09;;;;;;;3.03;2.57;;;23.40;51.40;;;;;;5011800;28;20420;-88
2022/03/30 12:51:36;;;;;;;4.90;3.03;;;23.30;51.40;;;;;;5013721;28;20511;-89
2022/03/30 12:54:07;;;;;;;3.50;3.20;;;23.30;51.40;;;;;;5013303;28;20444;-88
2022/03/30 12:56:33;;;;;;;3.50;2.60;;;23.30;51.40;;;;;;5014606;28;20424;-88
2022/03/30 12:59:04;;;;;;;3.00;2.60;;;23.30;51.40;;;;;;5011543;28;20438;-88
2022/03/30 13:01:37;;;;;;;4.17;2.63;;;23.30;51.40;;;;;;5012829;28;20225;-87
2022/03/30 13:04:26;;;;;;;3.03;2.50;;;23.30;51.40;;;;;;5003383;28;20417;-88
2022/03/30 13:07:09;;;;;;;3.83;2.70;;;23.30;51.40;;;;;;5003666;28;20428;-88
2022/03/30 13:09:37;;;;;;;3.43;2.30;;;23.30;51.40;;;;;;5012181;28;20451;-86
2022/03/30 13:12:06;;;;;;;2.60;2.30;;;23.30;51.40;;;;;;5008003;28;21118;-85
2022/03/30 13:14:32;;;;;;;4.03;2.33;;;23.30;51.50;;;;;;5006000;28;20444;-86
2022/03/30 13:17:09;;;;;;;3.20;2.60;;;23.30;51.50;;;;;;5036287;28;20460;-85
2022/03/30 13:19:36;;;;;;;3.17;2.50;;;23.30;51.50;;;;;;5034405;28;20372;-84
2022/03/30 13:22:07;;;;;;;3.33;2.53;;;23.30;51.50;;;;;;5033241;28;20494;-85
2022/03/30 13:24:33;;;;;;;2.80;2.03;;;23.30;51.50;;;;;;5032825;28;20422;-86
2022/03/30 13:27:07;;;;;;;2.73;2.43;;;23.30;51.50;;;;;;5033724;28;20419;-86